sensor_id;sensor_type;location;lat;lon;timestamp;temperature;humidity
40516;DHT22;26216;53.724;9.898;2023-04-24T00:00:56;15.30;92.90
40516;DHT22;26216;53.724;9.898;2023-04-24T00:03:25;15.30;93.10
40516;DHT22;26216;53.724;9.898;2023-04-24T00:05:51;15.30;93.10
40516;DHT22;26216;53.724;9.898;2023-04-24T00:08:18;15.20;93.10
40516;DHT22;26216;53.724;9.898;2023-04-24T00:10:44;15.20;93.10
40516;DHT22;26216;53.724;9.898;2023-04-24T00:13:10;15.20;93.10
40516;DHT22;26216;53.724;9.898;2023-04-24T00:15:35;15.20;93.20
40516;DHT22;26216;53.724;9.898;2023-04-24T00:18:01;15.20;93.20
40516;DHT22;26216;53.724;9.898;2023-04-24T00:20:28;15.20;93.40
40516;DHT22;26216;53.724;9.898;2023-04-24T00:22:55;15.20;93.50
40516;DHT22;26216;53.724;9.898;2023-04-24T00:25:21;15.20;93.50
40516;DHT22;26216;53.724;9.898;2023-04-24T00:27:47;15.20;93.70
40516;DHT22;26216;53.724;9.898;2023-04-24T00:30:13;15.20;93.50
40516;DHT22;26216;53.724;9.898;2023-04-24T00:32:39;15.20;93.60
40516;DHT22;26216;53.724;9.898;2023-04-24T00:35:05;15.20;93.80
40516;DHT22;26216;53.724;9.898;2023-04-24T00:37:31;15.20;93.80
40516;DHT22;26216;53.724;9.898;2023-04-24T00:39:57;15.20;93.90
40516;DHT22;26216;53.724;9.898;2023-04-24T00:42:23;15.20;93.80
40516;DHT22;26216;53.724;9.898;2023-04-24T00:44:50;15.10;93.90
40516;DHT22;26216;53.724;9.898;2023-04-24T00:47:16;15.20;93.80
40516;DHT22;26216;53.724;9.898;2023-04-24T00:49:44;15.20;93.80
40516;DHT22;26216;53.724;9.898;2023-04-24T00:52:10;15.10;93.80
40516;DHT22;26216;53.724;9.898;2023-04-24T00:54:36;15.10;93.80
40516;DHT22;26216;53.724;9.898;2023-04-24T00:57:05;15.10;93.90
40516;DHT22;26216;53.724;9.898;2023-04-24T00:59:31;15.10;93.90
40516;DHT22;26216;53.724;9.898;2023-04-24T01:01:58;15.10;94.00
40516;DHT22;26216;53.724;9.898;2023-04-24T01:04:24;15.10;94.20
40516;DHT22;26216;53.724;9.898;2023-04-24T01:06:51;15.10;94.10
40516;DHT22;26216;53.724;9.898;2023-04-24T01:09:19;15.00;94.10
40516;DHT22;26216;53.724;9.898;2023-04-24T01:11:46;15.00;94.10
40516;DHT22;26216;53.724;9.898;2023-04-24T01:14:12;15.00;94.10
40516;DHT22;26216;53.724;9.898;2023-04-24T01:16:38;14.90;94.10
40516;DHT22;26216;53.724;9.898;2023-04-24T01:19:06;14.90;94.10
40516;DHT22;26216;53.724;9.898;2023-04-24T01:21:36;14.90;94.00
40516;DHT22;26216;53.724;9.898;2023-04-24T01:24:03;14.90;94.10
40516;DHT22;26216;53.724;9.898;2023-04-24T01:26:29;14.80;94.00
40516;DHT22;26216;53.724;9.898;2023-04-24T01:28:56;14.80;94.40
40516;DHT22;26216;53.724;9.898;2023-04-24T01:31:22;14.70;94.20
40516;DHT22;26216;53.724;9.898;2023-04-24T01:33:48;14.70;94.40
40516;DHT22;26216;53.724;9.898;2023-04-24T01:36:16;14.70;94.20
40516;DHT22;26216;53.724;9.898;2023-04-24T01:38:42;14.70;94.50
40516;DHT22;26216;53.724;9.898;2023-04-24T01:41:08;14.60;94.50
40516;DHT22;26216;53.724;9.898;2023-04-24T01:43:34;14.60;94.60
40516;DHT22;26216;53.724;9.898;2023-04-24T01:46:00;14.60;94.60
40516;DHT22;26216;53.724;9.898;2023-04-24T01:48:26;14.60;94.60
40516;DHT22;26216;53.724;9.898;2023-04-24T01:50:52;14.50;94.60
40516;DHT22;26216;53.724;9.898;2023-04-24T01:53:18;14.50;94.70
40516;DHT22;26216;53.724;9.898;2023-04-24T01:55:44;14.50;94.70
40516;DHT22;26216;53.724;9.898;2023-04-24T01:58:10;14.50;94.80
40516;DHT22;26216;53.724;9.898;2023-04-24T02:00:35;14.50;94.90
40516;DHT22;26216;53.724;9.898;2023-04-24T02:03:01;14.50;95.00
40516;DHT22;26216;53.724;9.898;2023-04-24T02:05:28;14.50;95.20
40516;DHT22;26216;53.724;9.898;2023-04-24T02:07:53;14.50;95.00
40516;DHT22;26216;53.724;9.898;2023-04-24T02:10:19;14.50;95.10
40516;DHT22;26216;53.724;9.898;2023-04-24T02:12:45;14.50;95.30
40516;DHT22;26216;53.724;9.898;2023-04-24T02:15:11;14.50;95.40
40516;DHT22;26216;53.724;9.898;2023-04-24T02:17:38;14.50;95.20
40516;DHT22;26216;53.724;9.898;2023-04-24T02:20:05;14.50;95.20
40516;DHT22;26216;53.724;9.898;2023-04-24T02:22:31;14.50;95.30
40516;DHT22;26216;53.724;9.898;2023-04-24T02:24:57;14.50;95.20
40516;DHT22;26216;53.724;9.898;2023-04-24T02:27:22;14.50;95.10
40516;DHT22;26216;53.724;9.898;2023-04-24T02:29:48;14.50;95.00
40516;DHT22;26216;53.724;9.898;2023-04-24T02:32:14;14.40;95.10
40516;DHT22;26216;53.724;9.898;2023-04-24T02:34:41;14.40;94.90
40516;DHT22;26216;53.724;9.898;2023-04-24T02:37:06;14.40;94.90
40516;DHT22;26216;53.724;9.898;2023-04-24T02:39:32;14.30;94.90
40516;DHT22;26216;53.724;9.898;2023-04-24T02:41:58;14.30;94.90
40516;DHT22;26216;53.724;9.898;2023-04-24T02:44:24;14.20;94.90
40516;DHT22;26216;53.724;9.898;2023-04-24T02:46:50;14.20;94.80
40516;DHT22;26216;53.724;9.898;2023-04-24T02:49:16;14.20;94.70
40516;DHT22;26216;53.724;9.898;2023-04-24T02:51:41;14.10;94.80
40516;DHT22;26216;53.724;9.898;2023-04-24T02:54:08;14.10;94.60
40516;DHT22;26216;53.724;9.898;2023-04-24T02:56:35;14.00;94.60
40516;DHT22;26216;53.724;9.898;2023-04-24T02:59:01;14.00;94.70
40516;DHT22;26216;53.724;9.898;2023-04-24T03:01:28;14.00;94.70
40516;DHT22;26216;53.724;9.898;2023-04-24T03:03:55;13.90;94.60
40516;DHT22;26216;53.724;9.898;2023-04-24T03:06:20;13.90;94.70
40516;DHT22;26216;53.724;9.898;2023-04-24T03:08:47;13.90;94.60
40516;DHT22;26216;53.724;9.898;2023-04-24T03:11:16;13.80;94.60
40516;DHT22;26216;53.724;9.898;2023-04-24T03:13:45;13.80;94.50
40516;DHT22;26216;53.724;9.898;2023-04-24T03:16:11;13.70;94.40
40516;DHT22;26216;53.724;9.898;2023-04-24T03:18:36;13.70;94.60
40516;DHT22;26216;53.724;9.898;2023-04-24T03:21:03;13.70;94.40
40516;DHT22;26216;53.724;9.898;2023-04-24T03:23:34;13.70;94.60
40516;DHT22;26216;53.724;9.898;2023-04-24T03:26:03;13.60;94.40
40516;DHT22;26216;53.724;9.898;2023-04-24T03:28:29;13.60;94.40
40516;DHT22;26216;53.724;9.898;2023-04-24T03:30:55;13.50;94.60
40516;DHT22;26216;53.724;9.898;2023-04-24T03:33:44;13.50;94.60
40516;DHT22;26216;53.724;9.898;2023-04-24T03:36:10;13.50;94.70
40516;DHT22;26216;53.724;9.898;2023-04-24T03:38:36;13.50;94.70
40516;DHT22;26216;53.724;9.898;2023-04-24T03:41:02;13.40;94.80
40516;DHT22;26216;53.724;9.898;2023-04-24T03:43:28;13.40;94.70
40516;DHT22;26216;53.724;9.898;2023-04-24T03:45:54;13.40;94.90
40516;DHT22;26216;53.724;9.898;2023-04-24T03:48:20;13.40;94.90
40516;DHT22;26216;53.724;9.898;2023-04-24T03:50:46;13.30;95.10
40516;DHT22;26216;53.724;9.898;2023-04-24T03:53:12;13.30;95.10
40516;DHT22;26216;53.724;9.898;2023-04-24T03:55:38;13.30;95.20
40516;DHT22;26216;53.724;9.898;2023-04-24T03:58:03;13.20;95.20
40516;DHT22;26216;53.724;9.898;2023-04-24T04:00:29;13.20;95.30
40516;DHT22;26216;53.724;9.898;2023-04-24T04:02:57;13.20;95.20
40516;DHT22;26216;53.724;9.898;2023-04-24T04:05:23;13.20;95.20
40516;DHT22;26216;53.724;9.898;2023-04-24T04:07:49;13.20;95.30
40516;DHT22;26216;53.724;9.898;2023-04-24T04:10:14;13.10;95.50
40516;DHT22;26216;53.724;9.898;2023-04-24T04:12:40;13.10;95.30
40516;DHT22;26216;53.724;9.898;2023-04-24T04:15:06;13.10;95.40
40516;DHT22;26216;53.724;9.898;2023-04-24T04:17:32;13.10;95.40
40516;DHT22;26216;53.724;9.898;2023-04-24T04:19:58;13.10;95.40
40516;DHT22;26216;53.724;9.898;2023-04-24T04:22:25;13.10;95.40
40516;DHT22;26216;53.724;9.898;2023-04-24T04:24:50;13.00;95.30
40516;DHT22;26216;53.724;9.898;2023-04-24T04:27:16;13.00;95.30
40516;DHT22;26216;53.724;9.898;2023-04-24T04:29:45;13.00;95.20
40516;DHT22;26216;53.724;9.898;2023-04-24T04:32:12;13.00;95.20
40516;DHT22;26216;53.724;9.898;2023-04-24T04:34:38;13.00;95.10
40516;DHT22;26216;53.724;9.898;2023-04-24T04:37:05;13.00;95.10
40516;DHT22;26216;53.724;9.898;2023-04-24T04:39:31;13.00;95.20
40516;DHT22;26216;53.724;9.898;2023-04-24T04:41:57;13.00;95.30
40516;DHT22;26216;53.724;9.898;2023-04-24T04:44:24;13.00;95.20
40516;DHT22;26216;53.724;9.898;2023-04-24T04:46:50;13.00;95.10
40516;DHT22;26216;53.724;9.898;2023-04-24T04:49:18;13.00;95.20
40516;DHT22;26216;53.724;9.898;2023-04-24T04:51:47;13.00;95.20
40516;DHT22;26216;53.724;9.898;2023-04-24T04:54:13;13.00;95.20
40516;DHT22;26216;53.724;9.898;2023-04-24T04:56:39;13.10;95.30
40516;DHT22;26216;53.724;9.898;2023-04-24T04:59:05;13.10;95.40
40516;DHT22;26216;53.724;9.898;2023-04-24T05:01:31;13.10;95.40
40516;DHT22;26216;53.724;9.898;2023-04-24T05:03:57;13.10;95.40
40516;DHT22;26216;53.724;9.898;2023-04-24T05:06:23;13.20;95.40
40516;DHT22;26216;53.724;9.898;2023-04-24T05:08:49;13.30;95.40
40516;DHT22;26216;53.724;9.898;2023-04-24T05:11:16;13.30;95.30
40516;DHT22;26216;53.724;9.898;2023-04-24T05:13:42;13.40;95.20
40516;DHT22;26216;53.724;9.898;2023-04-24T05:16:09;13.40;95.20
40516;DHT22;26216;53.724;9.898;2023-04-24T05:18:35;13.50;95.30
40516;DHT22;26216;53.724;9.898;2023-04-24T05:21:01;13.50;95.20
40516;DHT22;26216;53.724;9.898;2023-04-24T05:23:27;13.50;95.10
40516;DHT22;26216;53.724;9.898;2023-04-24T05:25:53;13.60;95.10
40516;DHT22;26216;53.724;9.898;2023-04-24T05:28:18;13.60;95.10
40516;DHT22;26216;53.724;9.898;2023-04-24T05:30:45;13.70;95.10
40516;DHT22;26216;53.724;9.898;2023-04-24T05:33:11;13.70;95.00
40516;DHT22;26216;53.724;9.898;2023-04-24T05:35:37;13.80;95.00
40516;DHT22;26216;53.724;9.898;2023-04-24T05:38:03;13.80;94.90
40516;DHT22;26216;53.724;9.898;2023-04-24T05:40:29;13.90;94.80
40516;DHT22;26216;53.724;9.898;2023-04-24T05:42:55;14.00;94.80
40516;DHT22;26216;53.724;9.898;2023-04-24T05:45:21;14.00;94.80
40516;DHT22;26216;53.724;9.898;2023-04-24T05:47:46;14.00;94.70
40516;DHT22;26216;53.724;9.898;2023-04-24T05:50:13;14.10;94.60
40516;DHT22;26216;53.724;9.898;2023-04-24T05:52:39;14.10;94.50
40516;DHT22;26216;53.724;9.898;2023-04-24T05:55:05;14.20;94.40
40516;DHT22;26216;53.724;9.898;2023-04-24T05:57:31;14.20;94.50
40516;DHT22;26216;53.724;9.898;2023-04-24T05:59:57;14.30;94.50
40516;DHT22;26216;53.724;9.898;2023-04-24T06:02:22;14.30;94.50
40516;DHT22;26216;53.724;9.898;2023-04-24T06:04:48;14.40;94.50
40516;DHT22;26216;53.724;9.898;2023-04-24T06:07:14;14.40;94.50
40516;DHT22;26216;53.724;9.898;2023-04-24T06:09:40;14.50;94.50
40516;DHT22;26216;53.724;9.898;2023-04-24T06:12:06;14.50;94.40
40516;DHT22;26216;53.724;9.898;2023-04-24T06:14:34;14.60;94.30
40516;DHT22;26216;53.724;9.898;2023-04-24T06:17:00;14.70;94.10
40516;DHT22;26216;53.724;9.898;2023-04-24T06:19:25;14.70;94.20
40516;DHT22;26216;53.724;9.898;2023-04-24T06:21:51;14.80;94.30
40516;DHT22;26216;53.724;9.898;2023-04-24T06:24:17;14.90;94.50
40516;DHT22;26216;53.724;9.898;2023-04-24T06:26:43;15.00;94.40
40516;DHT22;26216;53.724;9.898;2023-04-24T06:29:09;15.10;94.40
40516;DHT22;26216;53.724;9.898;2023-04-24T06:31:35;15.20;94.50
40516;DHT22;26216;53.724;9.898;2023-04-24T06:34:05;15.30;94.40
40516;DHT22;26216;53.724;9.898;2023-04-24T06:36:32;15.40;94.20
40516;DHT22;26216;53.724;9.898;2023-04-24T06:39:00;15.50;94.00
40516;DHT22;26216;53.724;9.898;2023-04-24T06:41:26;15.60;93.40
40516;DHT22;26216;53.724;9.898;2023-04-24T06:43:52;15.70;93.30
40516;DHT22;26216;53.724;9.898;2023-04-24T06:46:17;15.80;93.10
40516;DHT22;26216;53.724;9.898;2023-04-24T06:48:43;15.90;93.50
40516;DHT22;26216;53.724;9.898;2023-04-24T06:51:10;15.90;93.40
40516;DHT22;26216;53.724;9.898;2023-04-24T06:53:36;16.00;93.40
40516;DHT22;26216;53.724;9.898;2023-04-24T06:56:02;16.10;93.40
40516;DHT22;26216;53.724;9.898;2023-04-24T06:58:28;16.20;93.30
40516;DHT22;26216;53.724;9.898;2023-04-24T07:00:53;16.30;92.60
40516;DHT22;26216;53.724;9.898;2023-04-24T07:03:19;16.40;92.50
40516;DHT22;26216;53.724;9.898;2023-04-24T07:05:46;16.40;92.60
40516;DHT22;26216;53.724;9.898;2023-04-24T07:08:11;16.50;92.10
40516;DHT22;26216;53.724;9.898;2023-04-24T07:10:38;16.50;92.20
40516;DHT22;26216;53.724;9.898;2023-04-24T07:13:04;16.60;92.20
40516;DHT22;26216;53.724;9.898;2023-04-24T07:15:30;16.60;92.30
40516;DHT22;26216;53.724;9.898;2023-04-24T07:17:56;16.70;92.00
40516;DHT22;26216;53.724;9.898;2023-04-24T07:20:22;16.70;92.10
40516;DHT22;26216;53.724;9.898;2023-04-24T07:22:48;16.80;91.80
40516;DHT22;26216;53.724;9.898;2023-04-24T07:25:14;16.80;91.90
40516;DHT22;26216;53.724;9.898;2023-04-24T07:27:41;16.80;92.00
40516;DHT22;26216;53.724;9.898;2023-04-24T07:30:07;16.90;92.00
40516;DHT22;26216;53.724;9.898;2023-04-24T07:32:33;16.90;91.90
40516;DHT22;26216;53.724;9.898;2023-04-24T07:34:59;17.00;91.80
40516;DHT22;26216;53.724;9.898;2023-04-24T07:37:25;17.00;91.70
40516;DHT22;26216;53.724;9.898;2023-04-24T07:39:51;17.10;91.40
40516;DHT22;26216;53.724;9.898;2023-04-24T07:42:17;17.20;91.10
40516;DHT22;26216;53.724;9.898;2023-04-24T07:44:42;17.20;90.90
40516;DHT22;26216;53.724;9.898;2023-04-24T07:47:08;17.20;90.80
40516;DHT22;26216;53.724;9.898;2023-04-24T07:49:34;17.20;90.70
40516;DHT22;26216;53.724;9.898;2023-04-24T07:52:00;17.20;90.30
40516;DHT22;26216;53.724;9.898;2023-04-24T07:54:28;17.20;90.10
40516;DHT22;26216;53.724;9.898;2023-04-24T07:56:54;17.10;90.30
40516;DHT22;26216;53.724;9.898;2023-04-24T07:59:20;17.10;90.10
40516;DHT22;26216;53.724;9.898;2023-04-24T08:01:46;17.00;89.80
40516;DHT22;26216;53.724;9.898;2023-04-24T08:04:12;16.90;90.00
40516;DHT22;26216;53.724;9.898;2023-04-24T08:06:38;16.90;90.20
40516;DHT22;26216;53.724;9.898;2023-04-24T08:09:04;16.80;90.40
40516;DHT22;26216;53.724;9.898;2023-04-24T08:11:32;16.80;90.00
40516;DHT22;26216;53.724;9.898;2023-04-24T08:13:58;16.80;90.20
40516;DHT22;26216;53.724;9.898;2023-04-24T08:16:24;16.70;90.00
40516;DHT22;26216;53.724;9.898;2023-04-24T08:18:50;16.70;90.10
40516;DHT22;26216;53.724;9.898;2023-04-24T08:21:16;16.60;90.10
40516;DHT22;26216;53.724;9.898;2023-04-24T08:23:46;16.60;90.20
40516;DHT22;26216;53.724;9.898;2023-04-24T08:26:12;16.60;90.40
40516;DHT22;26216;53.724;9.898;2023-04-24T08:28:39;16.60;90.20
40516;DHT22;26216;53.724;9.898;2023-04-24T08:31:05;16.60;90.30
40516;DHT22;26216;53.724;9.898;2023-04-24T08:33:31;16.60;90.30
40516;DHT22;26216;53.724;9.898;2023-04-24T08:36:04;16.60;90.60
40516;DHT22;26216;53.724;9.898;2023-04-24T08:38:31;16.60;90.10
40516;DHT22;26216;53.724;9.898;2023-04-24T08:40:58;16.50;90.10
40516;DHT22;26216;53.724;9.898;2023-04-24T08:43:25;16.50;90.00
40516;DHT22;26216;53.724;9.898;2023-04-24T08:45:52;16.50;90.00
40516;DHT22;26216;53.724;9.898;2023-04-24T08:48:18;16.50;89.80
40516;DHT22;26216;53.724;9.898;2023-04-24T08:50:44;16.50;89.90
40516;DHT22;26216;53.724;9.898;2023-04-24T08:53:11;16.50;89.70
40516;DHT22;26216;53.724;9.898;2023-04-24T08:55:41;16.50;89.10
40516;DHT22;26216;53.724;9.898;2023-04-24T08:58:08;16.50;89.70
40516;DHT22;26216;53.724;9.898;2023-04-24T09:00:35;16.50;90.00
40516;DHT22;26216;53.724;9.898;2023-04-24T09:03:02;16.50;89.80
40516;DHT22;26216;53.724;9.898;2023-04-24T09:05:29;16.50;89.60
40516;DHT22;26216;53.724;9.898;2023-04-24T09:07:56;16.50;89.80
40516;DHT22;26216;53.724;9.898;2023-04-24T09:10:24;16.60;90.10
40516;DHT22;26216;53.724;9.898;2023-04-24T09:13:10;16.60;90.20
40516;DHT22;26216;53.724;9.898;2023-04-24T09:15:40;16.60;90.20
40516;DHT22;26216;53.724;9.898;2023-04-24T09:18:06;16.70;90.20
40516;DHT22;26216;53.724;9.898;2023-04-24T09:20:33;16.70;90.00
40516;DHT22;26216;53.724;9.898;2023-04-24T09:23:00;16.80;90.00
40516;DHT22;26216;53.724;9.898;2023-04-24T09:25:34;16.80;89.60
40516;DHT22;26216;53.724;9.898;2023-04-24T09:28:03;16.80;89.20
40516;DHT22;26216;53.724;9.898;2023-04-24T09:30:30;16.80;89.30
40516;DHT22;26216;53.724;9.898;2023-04-24T09:33:14;16.90;89.50
40516;DHT22;26216;53.724;9.898;2023-04-24T09:35:50;16.90;89.20
40516;DHT22;26216;53.724;9.898;2023-04-24T09:38:17;16.90;89.80
40516;DHT22;26216;53.724;9.898;2023-04-24T09:40:43;17.00;89.90
40516;DHT22;26216;53.724;9.898;2023-04-24T09:43:12;17.00;89.30
40516;DHT22;26216;53.724;9.898;2023-04-24T09:45:39;17.00;89.10
40516;DHT22;26216;53.724;9.898;2023-04-24T09:48:08;17.10;89.50
40516;DHT22;26216;53.724;9.898;2023-04-24T09:50:35;17.10;89.40
40516;DHT22;26216;53.724;9.898;2023-04-24T09:53:03;17.10;89.40
40516;DHT22;26216;53.724;9.898;2023-04-24T09:55:29;17.10;89.30
40516;DHT22;26216;53.724;9.898;2023-04-24T09:58:00;17.20;89.30
40516;DHT22;26216;53.724;9.898;2023-04-24T10:00:32;17.20;88.60
40516;DHT22;26216;53.724;9.898;2023-04-24T10:03:03;17.20;87.80
40516;DHT22;26216;53.724;9.898;2023-04-24T10:05:34;17.10;86.90
40516;DHT22;26216;53.724;9.898;2023-04-24T10:08:06;17.00;86.20
40516;DHT22;26216;53.724;9.898;2023-04-24T10:10:34;17.00;87.30
40516;DHT22;26216;53.724;9.898;2023-04-24T10:13:01;16.90;87.60
40516;DHT22;26216;53.724;9.898;2023-04-24T10:15:27;16.90;87.90
40516;DHT22;26216;53.724;9.898;2023-04-24T10:17:53;16.90;88.60
40516;DHT22;26216;53.724;9.898;2023-04-24T10:20:24;16.90;89.40
40516;DHT22;26216;53.724;9.898;2023-04-24T10:22:53;16.90;89.00
40516;DHT22;26216;53.724;9.898;2023-04-24T10:25:27;16.90;87.90
40516;DHT22;26216;53.724;9.898;2023-04-24T10:27:54;16.90;87.90
40516;DHT22;26216;53.724;9.898;2023-04-24T10:30:30;16.90;87.80
40516;DHT22;26216;53.724;9.898;2023-04-24T10:32:56;16.90;88.30
40516;DHT22;26216;53.724;9.898;2023-04-24T10:35:23;16.90;88.70
40516;DHT22;26216;53.724;9.898;2023-04-24T10:37:58;17.00;88.70
40516;DHT22;26216;53.724;9.898;2023-04-24T10:40:34;17.00;88.70
40516;DHT22;26216;53.724;9.898;2023-04-24T10:43:05;17.00;88.90
40516;DHT22;26216;53.724;9.898;2023-04-24T10:45:33;17.10;87.80
40516;DHT22;26216;53.724;9.898;2023-04-24T10:48:05;17.10;87.90
40516;DHT22;26216;53.724;9.898;2023-04-24T10:53:30;17.10;88.00
40516;DHT22;26216;53.724;9.898;2023-04-24T10:56:05;17.10;86.70
40516;DHT22;26216;53.724;9.898;2023-04-24T10:58:45;17.20;87.50
40516;DHT22;26216;53.724;9.898;2023-04-24T11:01:28;17.10;87.30
40516;DHT22;26216;53.724;9.898;2023-04-24T11:03:59;17.20;86.40
40516;DHT22;26216;53.724;9.898;2023-04-24T11:06:33;17.20;87.50
40516;DHT22;26216;53.724;9.898;2023-04-24T11:09:05;17.20;87.50
40516;DHT22;26216;53.724;9.898;2023-04-24T11:11:32;17.30;86.50
40516;DHT22;26216;53.724;9.898;2023-04-24T11:16:33;17.30;86.20
40516;DHT22;26216;53.724;9.898;2023-04-24T11:21:44;17.20;86.20
40516;DHT22;26216;53.724;9.898;2023-04-24T11:24:35;17.20;86.30
40516;DHT22;26216;53.724;9.898;2023-04-24T11:27:11;17.10;86.00
40516;DHT22;26216;53.724;9.898;2023-04-24T11:29:43;17.10;86.00
40516;DHT22;26216;53.724;9.898;2023-04-24T11:32:23;17.00;85.80
40516;DHT22;26216;53.724;9.898;2023-04-24T11:35:03;16.90;85.60
40516;DHT22;26216;53.724;9.898;2023-04-24T11:37:37;16.80;85.90
40516;DHT22;26216;53.724;9.898;2023-04-24T11:40:08;16.70;85.60
40516;DHT22;26216;53.724;9.898;2023-04-24T11:42:36;16.70;85.70
40516;DHT22;26216;53.724;9.898;2023-04-24T11:45:02;16.60;86.20
40516;DHT22;26216;53.724;9.898;2023-04-24T11:47:32;16.60;86.80
40516;DHT22;26216;53.724;9.898;2023-04-24T11:50:02;16.60;87.50
40516;DHT22;26216;53.724;9.898;2023-04-24T11:52:30;16.60;88.40
40516;DHT22;26216;53.724;9.898;2023-04-24T11:54:56;16.70;88.00
40516;DHT22;26216;53.724;9.898;2023-04-24T11:57:24;16.80;88.20
40516;DHT22;26216;53.724;9.898;2023-04-24T11:59:53;16.80;87.60
40516;DHT22;26216;53.724;9.898;2023-04-24T12:02:26;16.90;87.30
40516;DHT22;26216;53.724;9.898;2023-04-24T12:04:53;17.00;86.20
40516;DHT22;26216;53.724;9.898;2023-04-24T12:07:19;17.00;86.50
40516;DHT22;26216;53.724;9.898;2023-04-24T12:09:48;17.00;86.50
40516;DHT22;26216;53.724;9.898;2023-04-24T12:12:16;17.10;86.80
40516;DHT22;26216;53.724;9.898;2023-04-24T12:14:48;17.20;86.80
40516;DHT22;26216;53.724;9.898;2023-04-24T12:17:16;17.20;86.90
40516;DHT22;26216;53.724;9.898;2023-04-24T12:19:48;17.30;86.70
40516;DHT22;26216;53.724;9.898;2023-04-24T12:22:16;17.30;85.90
40516;DHT22;26216;53.724;9.898;2023-04-24T12:25:02;17.30;84.90
40516;DHT22;26216;53.724;9.898;2023-04-24T12:27:32;17.30;85.10
40516;DHT22;26216;53.724;9.898;2023-04-24T12:29:59;17.40;86.40
40516;DHT22;26216;53.724;9.898;2023-04-24T12:32:26;17.40;85.90
40516;DHT22;26216;53.724;9.898;2023-04-24T12:34:55;17.50;85.40
40516;DHT22;26216;53.724;9.898;2023-04-24T12:37:25;17.50;84.60
40516;DHT22;26216;53.724;9.898;2023-04-24T12:42:30;17.50;84.20
40516;DHT22;26216;53.724;9.898;2023-04-24T12:44:57;17.60;84.80
40516;DHT22;26216;53.724;9.898;2023-04-24T12:47:25;17.60;84.20
40516;DHT22;26216;53.724;9.898;2023-04-24T12:49:51;17.60;84.70
40516;DHT22;26216;53.724;9.898;2023-04-24T12:52:21;17.70;85.60
40516;DHT22;26216;53.724;9.898;2023-04-24T12:54:47;17.70;85.50
40516;DHT22;26216;53.724;9.898;2023-04-24T12:57:13;17.70;84.90
40516;DHT22;26216;53.724;9.898;2023-04-24T12:59:39;17.80;84.50
40516;DHT22;26216;53.724;9.898;2023-04-24T13:02:06;17.80;83.80
40516;DHT22;26216;53.724;9.898;2023-04-24T13:04:33;17.80;84.00
40516;DHT22;26216;53.724;9.898;2023-04-24T13:06:59;17.70;83.90
40516;DHT22;26216;53.724;9.898;2023-04-24T13:09:25;17.70;84.10
40516;DHT22;26216;53.724;9.898;2023-04-24T13:11:51;17.70;83.80
40516;DHT22;26216;53.724;9.898;2023-04-24T13:14:17;17.50;84.10
40516;DHT22;26216;53.724;9.898;2023-04-24T13:16:42;17.40;83.60
40516;DHT22;26216;53.724;9.898;2023-04-24T13:19:08;17.30;83.70
40516;DHT22;26216;53.724;9.898;2023-04-24T13:21:35;17.30;83.70
40516;DHT22;26216;53.724;9.898;2023-04-24T13:24:01;17.20;84.30
40516;DHT22;26216;53.724;9.898;2023-04-24T13:26:27;17.10;84.30
40516;DHT22;26216;53.724;9.898;2023-04-24T13:28:53;17.00;84.40
40516;DHT22;26216;53.724;9.898;2023-04-24T13:31:19;16.90;85.20
40516;DHT22;26216;53.724;9.898;2023-04-24T13:33:45;16.80;85.60
40516;DHT22;26216;53.724;9.898;2023-04-24T13:36:11;16.70;86.30
40516;DHT22;26216;53.724;9.898;2023-04-24T13:38:36;16.70;87.40
40516;DHT22;26216;53.724;9.898;2023-04-24T13:41:02;16.60;87.70
40516;DHT22;26216;53.724;9.898;2023-04-24T13:43:28;16.60;87.80
40516;DHT22;26216;53.724;9.898;2023-04-24T13:45:54;16.60;88.30
40516;DHT22;26216;53.724;9.898;2023-04-24T13:48:20;16.60;88.60
40516;DHT22;26216;53.724;9.898;2023-04-24T13:50:47;16.50;88.60
40516;DHT22;26216;53.724;9.898;2023-04-24T13:53:15;16.50;88.90
40516;DHT22;26216;53.724;9.898;2023-04-24T13:55:41;16.50;89.10
40516;DHT22;26216;53.724;9.898;2023-04-24T13:58:07;16.50;89.20
40516;DHT22;26216;53.724;9.898;2023-04-24T14:00:33;16.50;89.30
40516;DHT22;26216;53.724;9.898;2023-04-24T14:02:59;16.60;89.70
40516;DHT22;26216;53.724;9.898;2023-04-24T14:05:26;16.60;89.70
40516;DHT22;26216;53.724;9.898;2023-04-24T14:07:52;16.60;89.70
40516;DHT22;26216;53.724;9.898;2023-04-24T14:10:18;16.60;89.70
40516;DHT22;26216;53.724;9.898;2023-04-24T14:12:45;16.70;89.50
40516;DHT22;26216;53.724;9.898;2023-04-24T14:15:11;16.70;89.20
40516;DHT22;26216;53.724;9.898;2023-04-24T14:17:39;16.70;88.80
40516;DHT22;26216;53.724;9.898;2023-04-24T14:20:06;16.70;88.80
40516;DHT22;26216;53.724;9.898;2023-04-24T14:22:32;16.70;89.10
40516;DHT22;26216;53.724;9.898;2023-04-24T14:24:59;16.70;88.70
40516;DHT22;26216;53.724;9.898;2023-04-24T14:27:25;16.70;88.70
40516;DHT22;26216;53.724;9.898;2023-04-24T14:29:52;16.70;88.50
40516;DHT22;26216;53.724;9.898;2023-04-24T14:32:18;16.70;88.30
40516;DHT22;26216;53.724;9.898;2023-04-24T14:34:45;16.70;88.40
40516;DHT22;26216;53.724;9.898;2023-04-24T14:37:11;16.60;87.90
40516;DHT22;26216;53.724;9.898;2023-04-24T14:39:37;16.60;88.10
40516;DHT22;26216;53.724;9.898;2023-04-24T14:42:03;16.60;88.20
40516;DHT22;26216;53.724;9.898;2023-04-24T14:44:29;16.60;87.90
40516;DHT22;26216;53.724;9.898;2023-04-24T14:46:55;16.50;87.80
40516;DHT22;26216;53.724;9.898;2023-04-24T14:49:22;16.50;87.90
40516;DHT22;26216;53.724;9.898;2023-04-24T14:51:49;16.40;87.70
40516;DHT22;26216;53.724;9.898;2023-04-24T14:54:15;16.40;87.90
40516;DHT22;26216;53.724;9.898;2023-04-24T14:56:41;16.30;88.20
40516;DHT22;26216;53.724;9.898;2023-04-24T14:59:09;16.30;88.60
40516;DHT22;26216;53.724;9.898;2023-04-24T15:01:36;16.20;88.00
40516;DHT22;26216;53.724;9.898;2023-04-24T15:04:02;16.20;88.60
40516;DHT22;26216;53.724;9.898;2023-04-24T15:06:30;16.10;88.70
40516;DHT22;26216;53.724;9.898;2023-04-24T15:08:57;16.10;88.60
40516;DHT22;26216;53.724;9.898;2023-04-24T15:11:25;16.00;88.80
40516;DHT22;26216;53.724;9.898;2023-04-24T15:13:51;16.00;88.60
40516;DHT22;26216;53.724;9.898;2023-04-24T15:16:18;15.90;88.50
40516;DHT22;26216;53.724;9.898;2023-04-24T15:18:44;15.80;88.70
40516;DHT22;26216;53.724;9.898;2023-04-24T15:21:10;15.70;89.00
40516;DHT22;26216;53.724;9.898;2023-04-24T15:23:38;15.50;88.20
40516;DHT22;26216;53.724;9.898;2023-04-24T15:26:05;15.40;89.00
40516;DHT22;26216;53.724;9.898;2023-04-24T15:28:31;15.20;90.10
40516;DHT22;26216;53.724;9.898;2023-04-24T15:30:57;14.90;90.60
40516;DHT22;26216;53.724;9.898;2023-04-24T15:33:23;14.70;91.20
40516;DHT22;26216;53.724;9.898;2023-04-24T15:35:53;14.50;91.50
40516;DHT22;26216;53.724;9.898;2023-04-24T15:38:19;14.30;91.90
40516;DHT22;26216;53.724;9.898;2023-04-24T15:40:45;14.10;92.20